Time;durP1;ratioP1;P1;durP2;ratioP2;P2;SDS_P1;SDS_P2;PMS_P1;PMS_P2;Temp;Humidity;BMP_temperature;BMP_pressure;BME280_temperature;BME280_humidity;BME280_pressure;Samples;Min_cycle;Max_cycle;Signal;HPM_P1;HPM_P2
2023/03/02 00:00:31;;;;;;;27.88;20.30;;;;;;;-2.71;89.67;100805.31;10544934;28;20043;-73
2023/03/02 00:05:34;;;;;;;35.25;22.15;;;;;;;-2.79;90.49;100799.03;10545096;28;20478;-72
2023/03/02 00:10:37;;;;;;;38.45;23.60;;;;;;;-2.70;90.74;100793.31;10547274;28;20040;-71
2023/03/02 00:15:38;;;;;;;35.28;23.23;;;;;;;-2.82;90.20;100793.78;10545016;28;20036;-72
2023/03/02 00:20:40;;;;;;;36.85;25.02;;;;;;;-2.69;90.99;100800.22;10545049;28;20115;-72
2023/03/02 00:25:42;;;;;;;39.75;25.40;;;;;;;-2.78;90.09;100794.78;10545160;28;20123;-72
2023/03/02 00:30:44;;;;;;;42.30;25.98;;;;;;;-3.22;90.69;100792.41;10543248;28;20458;-73
2023/03/02 00:35:46;;;;;;;47.92;25.85;;;;;;;-3.36;92.95;100785.88;10544731;28;20046;-72
2023/03/02 00:40:48;;;;;;;43.40;26.48;;;;;;;-2.85;92.04;100785.97;10545742;28;20051;-72
2023/03/02 00:45:49;;;;;;;45.30;26.95;;;;;;;-2.95;91.01;100776.19;10543781;28;20392;-72
2023/03/02 00:50:51;;;;;;;48.35;27.17;;;;;;;-3.26;93.12;100763.94;10543320;28;20046;-73
2023/03/02 00:55:54;;;;;;;46.30;26.02;;;;;;;-3.46;93.72;100765.78;10544160;28;20497;-72
2023/03/02 01:00:58;;;;;;;50.15;26.77;;;;;;;-3.27;94.18;100763.09;10542992;28;20051;-73
2023/03/02 01:06:01;;;;;;;39.90;26.38;;;;;;;-3.28;93.79;100761.31;10526829;28;20070;-73
2023/03/02 01:11:03;;;;;;;43.03;27.95;;;;;;;-3.12;93.23;100750.75;10541654;28;20534;-73
2023/03/02 01:16:05;;;;;;;40.38;26.10;;;;;;;-3.53;93.19;100754.44;10544179;28;20404;-73
2023/03/02 01:21:10;;;;;;;39.47;26.38;;;;;;;-3.66;94.92;100753.09;10542871;28;20040;-73
2023/03/02 01:26:12;;;;;;;53.75;28.65;;;;;;;-3.40;95.32;100748.03;10544360;28;20396;-73
2023/03/02 01:31:14;;;;;;;41.80;26.88;;;;;;;-3.31;93.54;100741.53;10541408;28;20044;-72
2023/03/02 01:36:16;;;;;;;47.75;27.25;;;;;;;-3.11;92.64;100734.50;10540965;28;20139;-72
2023/03/02 01:47:52;;;;;;;53.67;28.30;;;;;;;-3.44;94.67;100725.63;10541752;28;20040;-73
2023/03/02 01:52:55;;;;;;;38.10;26.85;;;;;;;-3.67;95.47;100725.66;10541572;28;20096;-73
2023/03/02 01:58:00;;;;;;;47.53;27.05;;;;;;;-3.41;94.88;100718.00;10540244;28;20574;-73
2023/03/02 02:03:07;;;;;;;46.88;28.35;;;;;;;-3.48;94.99;100716.91;10541475;28;20052;-73
2023/03/02 02:08:10;;;;;;;45.88;27.60;;;;;;;-3.84;95.52;100721.59;10539452;28;20040;-72
2023/03/02 02:13:12;;;;;;;52.80;28.92;;;;;;;-3.51;96.17;100711.66;10539358;28;20048;-72
2023/03/02 02:18:14;;;;;;;37.88;26.67;;;;;;;-3.68;95.94;100708.47;10540616;28;20089;-72
2023/03/02 02:23:33;;;;;;;43.22;27.50;;;;;;;-3.92;96.75;100708.47;10541140;28;20410;-73
2023/03/02 02:28:43;;;;;;;46.42;27.95;;;;;;;-4.05;97.11;100716.53;10538712;28;20090;-73
2023/03/02 02:33:54;;;;;;;48.97;28.77;;;;;;;-3.97;97.75;100710.00;10539491;28;20055;-73
2023/03/02 02:38:55;;;;;;;45.88;27.75;;;;;;;-3.94;98.21;100710.13;10541126;28;20389;-73
2023/03/02 02:43:58;;;;;;;54.65;29.63;;;;;;;-3.42;94.45;100704.28;10540946;28;20097;-73
2023/03/02 02:49:01;;;;;;;51.15;27.30;;;;;;;-3.57;94.34;100707.19;10538754;28;20036;-72
2023/03/02 02:54:03;;;;;;;47.63;28.88;;;;;;;-3.73;95.64;100697.16;10546533;22;20037;-73
2023/03/02 02:59:22;;;;;;;54.97;30.83;;;;;;;-3.59;96.79;100697.66;10443018;28;20453;-74
2023/03/02 03:04:28;;;;;;;51.22;29.25;;;;;;;-3.94;95.93;100689.56;10401533;28;20099;-74
2023/03/02 03:09:32;;;;;;;53.88;28.95;;;;;;;-4.11;98.78;100675.22;10386196;28;20418;-73
2023/03/02 03:14:38;;;;;;;52.17;28.88;;;;;;;-4.20;99.53;100680.00;10426120;28;20036;-73
2023/03/02 03:19:43;;;;;;;49.30;29.35;;;;;;;-3.75;97.96;100682.53;10407789;28;20057;-73
2023/03/02 03:24:45;;;;;;;52.53;30.95;;;;;;;-4.00;98.45;100686.75;10425446;28;20112;-72
2023/03/02 03:29:49;;;;;;;53.58;29.90;;;;;;;-3.81;98.09;100675.44;10407387;28;20087;-72
2023/03/02 03:34:52;;;;;;;55.97;30.73;;;;;;;-3.91;98.64;100683.66;10391576;28;20045;-73
2023/03/02 03:40:08;;;;;;;55.70;29.67;;;;;;;-3.70;96.75;100676.72;10408018;28;20046;-74
2023/03/02 03:45:12;;;;;;;47.40;28.88;;;;;;;-4.18;96.94;100678.38;10408151;28;20049;-74
2023/03/02 03:50:17;;;;;;;54.05;31.65;;;;;;;-4.41;99.04;100687.75;10408301;28;20046;-73
2023/03/02 03:55:19;;;;;;;59.25;31.05;;;;;;;-4.35;100.00;100695.69;10406147;28;20491;-73
2023/03/02 04:00:23;;;;;;;65.43;34.50;;;;;;;-4.35;100.00;100695.69;10424118;28;20124;-72
2023/03/02 04:05:33;;;;;;;50.60;29.90;;;;;;;-3.94;99.27;100694.72;10406350;28;20498;-73
2023/03/02 04:10:36;;;;;;;50.72;30.10;;;;;;;-4.07;97.34;100689.94;10406178;28;20136;-73
2023/03/02 04:15:40;;;;;;;53.78;30.48;;;;;;;-4.41;98.63;100688.63;10424836;28;20033;-74
2023/03/02 04:20:42;;;;;;;60.22;32.90;;;;;;;-4.30;100.00;100694.16;10423871;28;20045;-72
2023/03/02 04:25:44;;;;;;;64.45;33.33;;;;;;;-4.09;98.42;100688.97;10405989;28;20128;-73
2023/03/02 04:30:51;;;;;;;57.23;31.20;;;;;;;-4.01;97.88;100676.44;10404929;28;20053;-73
2023/03/02 04:35:53;;;;;;;70.68;32.30;;;;;;;-4.13;98.77;100682.84;10389151;28;20079;-73
2023/03/02 04:40:56;;;;;;;58.22;32.22;;;;;;;-4.30;98.65;100681.34;10405143;28;20048;-72
2023/03/02 04:45:58;;;;;;;62.35;32.38;;;;;;;-4.32;98.73;100681.28;10423704;28;20048;-73
2023/03/02 04:51:00;;;;;;;55.90;31.70;;;;;;;-4.67;99.59;100699.56;10422583;28;20045;-73
2023/03/02 04:56:02;;;;;;;60.80;31.73;;;;;;;-4.89;100.00;100692.69;10422907;28;20038;-73
2023/03/02 05:01:04;;;;;;;62.85;32.47;;;;;;;-4.87;100.00;100683.34;10422740;28;20049;-73
2023/03/02 05:06:06;;;;;;;55.88;32.08;;;;;;;-4.90;100.00;100683.25;10421675;28;20048;-72
2023/03/02 05:11:14;;;;;;;58.58;30.50;;;;;;;-4.63;100.00;100679.22;10421834;28;20119;-72
2023/03/02 05:16:16;;;;;;;63.15;33.20;;;;;;;-4.42;100.00;100673.19;10402719;28;20073;-72
2023/03/02 05:21:18;;;;;;;52.65;30.83;;;;;;;-4.61;98.89;100672.44;10420704;28;20046;-72
2023/03/02 05:26:20;;;;;;;59.30;32.75;;;;;;;-4.73;100.00;100671.13;10421345;28;20034;-73
2023/03/02 05:31:42;;;;;;;50.83;30.98;;;;;;;-4.85;100.00;100674.94;10420806;28;20053;-72
2023/03/02 05:36:45;;;;;;;68.47;34.05;;;;;;;-4.51;99.94;100670.28;10420677;28;20112;-74
2023/03/02 05:41:47;;;;;;;69.97;33.72;;;;;;;-4.59;99.21;100670.84;10420292;28;20048;-72
2023/03/02 05:46:49;;;;;;;60.40;31.95;;;;;;;-4.74;100.00;100669.34;10420227;28;20037;-73
2023/03/02 05:51:50;;;;;;;59.30;32.08;;;;;;;-5.02;100.00;100672.50;10401153;28;20574;-72
2023/03/02 05:56:52;;;;;;;69.45;31.33;;;;;;;-5.08;100.00;100674.00;10401466;28;20041;-73
2023/03/02 06:01:57;;;;;;;58.55;31.50;;;;;;;-5.10;100.00;100684.97;10402543;28;20045;-73
2023/03/02 06:06:59;;;;;;;71.95;35.25;;;;;;;-4.36;100.00;100679.41;10420405;28;20033;-72
2023/03/02 06:12:01;;;;;;;65.65;33.20;;;;;;;-4.22;98.24;100679.94;10402935;28;20052;-72
2023/03/02 06:17:03;;;;;;;63.55;34.85;;;;;;;-4.43;99.43;100685.13;10419805;28;20564;-73
2023/03/02 06:22:04;;;;;;;63.58;36.00;;;;;;;-4.16;100.00;100685.31;10404322;28;20477;-72
2023/03/02 06:27:06;;;;;;;65.00;37.30;;;;;;;-3.54;100.00;100696.16;10421308;28;20628;-73
2023/03/02 06:32:09;;;;;;;53.03;32.22;;;;;;;-3.18;98.71;100693.09;10385616;28;20057;-72
2023/03/02 06:37:11;;;;;;;54.88;31.05;;;;;;;-1.83;100.00;100700.78;10420783;28;20073;-72
2023/03/02 06:42:12;;;;;;;60.15;33.22;;;;;;;-0.40;94.48;100702.78;10419676;28;20049;-72
2023/03/02 06:47:14;;;;;;;40.45;26.77;;;;;;;0.31;82.98;100695.75;10409975;28;20467;-72
2023/03/02 06:52:16;;;;;;;34.08;27.50;;;;;;;0.81;79.81;100694.97;10428882;28;20041;-73
2023/03/02 06:57:18;;;;;;;42.05;26.75;;;;;;;1.68;69.57;100688.59;10428498;28;20037;-73
2023/03/02 07:02:19;;;;;;;45.58;28.10;;;;;;;1.19;67.72;100675.75;10429197;28;20045;-73
2023/03/02 07:07:21;;;;;;;40.70;26.65;;;;;;;1.00;71.45;100676.31;10411645;28;20048;-73
2023/03/02 07:12:23;;;;;;;41.55;27.40;;;;;;;0.80;70.08;100670.81;10428896;28;20136;-72
2023/03/02 07:17:25;;;;;;;50.88;30.55;;;;;;;-0.83;77.17;100688.84;10411649;28;20055;-72
2023/03/02 07:22:27;;;;;;;43.28;29.77;;;;;;;-1.20;81.52;100677.56;10427824;28;20392;-72
2023/03/02 07:27:28;;;;;;;47.53;29.10;;;;;;;-0.88;80.28;100675.84;10429690;28;20095;-71
2023/03/02 07:32:30;;;;;;;53.10;30.58;;;;;;;-1.36;84.54;100675.44;10429347;28;20068;-71
2023/03/02 07:37:32;;;;;;;51.55;30.55;;;;;;;-1.29;84.86;100682.50;10410576;28;20050;-71
2023/03/02 07:42:34;;;;;;;52.00;28.83;;;;;;;-0.78;83.06;100679.50;10428466;28;20050;-71
2023/03/02 07:47:36;;;;;;;50.63;31.75;;;;;;;-1.21;83.52;100677.53;10410836;28;20132;-73
2023/03/02 07:52:38;;;;;;;44.00;30.15;;;;;;;-0.87;82.78;100680.16;10428636;28;20553;-71
2023/03/02 07:57:40;;;;;;;51.67;29.95;;;;;;;-0.13;78.58;100676.72;10410820;28;20140;-71
2023/03/02 08:02:42;;;;;;;56.15;29.35;;;;;;;-0.13;77.43;100672.41;10427220;28;20041;-73
2023/03/02 08:07:45;;;;;;;49.33;30.38;;;;;;;-0.53;79.55;100676.69;10427381;28;20041;-72
2023/03/02 08:12:47;;;;;;;64.03;34.08;;;;;;;-1.02;83.09;100688.41;10427326;28;20046;-72
2023/03/02 08:17:48;;;;;;;60.15;31.05;;;;;;;-0.65;83.18;100691.88;10426287;28;20045;-73
2023/03/02 08:22:50;;;;;;;47.95;30.42;;;;;;;0.08;80.81;100678.84;10427037;28;20046;-72
2023/03/02 08:27:52;;;;;;;60.33;33.05;;;;;;;0.39;77.30;100682.94;10425857;28;20053;-72
2023/03/02 08:32:54;;;;;;;52.45;31.08;;;;;;;0.39;74.81;100690.69;10408300;28;20120;-72
2023/03/02 08:37:58;;;;;;;53.95;31.08;;;;;;;0.64;75.30;100685.16;10425079;28;20107;-73
2023/03/02 08:43:00;;;;;;;48.15;29.92;;;;;;;0.90;73.04;100670.09;10406431;28;20045;-72
2023/03/02 08:48:02;;;;;;;57.30;32.58;;;;;;;1.35;67.89;100674.31;10424005;28;20048;-72
2023/03/02 08:53:03;;;;;;;50.50;29.17;;;;;;;1.28;68.82;100667.28;10418660;28;20045;-72
2023/03/02 08:58:05;;;;;;;52.50;32.05;;;;;;;1.11;68.42;100663.56;10448892;23;20084;-73
2023/03/02 09:03:07;;;;;;;58.00;31.90;;;;;;;1.50;66.15;100661.56;10419766;28;20045;-74
2023/03/02 09:08:09;;;;;;;49.30;30.42;;;;;;;1.84;63.91;100656.00;10418354;28;20132;-73
2023/03/02 09:13:11;;;;;;;53.22;31.65;;;;;;;1.86;65.64;100646.53;10420688;28;20495;-73
2023/03/02 09:18:12;;;;;;;51.13;31.10;;;;;;;1.97;63.76;100648.41;10417178;28;20045;-73
2023/03/02 09:23:18;;;;;;;50.28;30.88;;;;;;;1.85;64.40;100653.44;10417679;28;20048;-75
2023/03/02 09:28:25;;;;;;;54.58;31.05;;;;;;;1.91;64.25;100647.47;10415627;28;20076;-74
2023/03/02 09:33:27;;;;;;;46.65;32.55;;;;;;;1.86;65.18;100649.13;10416520;28;20045;-74
2023/03/02 09:38:29;;;;;;;47.33;30.58;;;;;;;2.34;62.25;100658.38;10418416;28;20076;-73
2023/03/02 09:43:48;;;;;;;49.50;29.63;;;;;;;2.65;59.11;100644.00;10417930;28;20048;-74
2023/03/02 09:49:24;;;;;;;51.50;29.20;;;;;;;2.35;61.14;100645.44;10418442;28;20128;-74
2023/03/02 09:54:27;;;;;;;50.85;29.33;;;;;;;2.32;59.29;100650.56;10419320;28;20399;-74
2023/03/02 09:59:38;;;;;;;41.88;27.40;;;;;;;2.81;57.44;100645.03;10419764;28;20034;-74
2023/03/02 10:04:49;;;;;;;46.00;28.75;;;;;;;3.07;56.96;100645.28;10418252;28;20136;-73
2023/03/02 10:09:50;;;;;;;44.30;28.27;;;;;;;2.82;57.05;100631.19;10417038;28;20124;-74
2023/03/02 10:15:03;;;;;;;39.75;27.05;;;;;;;3.27;56.17;100625.50;10418453;28;20087;-74
2023/03/02 10:20:15;;;;;;;37.05;25.58;;;;;;;3.98;54.67;100624.19;10417209;28;20045;-73
2023/03/02 10:25:49;;;;;;;33.88;25.58;;;;;;;4.47;51.97;100614.84;10416838;28;20058;-74
2023/03/02 10:31:03;;;;;;;33.53;24.67;;;;;;;5.11;50.33;100606.19;10315117;28;20162;-74
2023/03/02 10:36:20;;;;;;;33.08;23.45;;;;;;;5.95;45.88;100610.41;10328294;28;20137;-73
2023/03/02 10:41:27;;;;;;;43.60;25.25;;;;;;;6.35;45.24;100605.88;10315034;28;20042;-73
2023/03/02 10:46:44;;;;;;;26.45;19.83;;;;;;;6.47;42.12;100599.72;10331470;28;20464;-72
2023/03/02 10:51:56;;;;;;;22.55;20.27;;;;;;;7.05;42.79;100596.69;10313946;28;20050;-73
2023/03/02 10:57:02;;;;;;;18.67;16.77;;;;;;;7.71;38.88;100599.53;10330122;28;20519;-72
2023/03/02 11:02:21;;;;;;;23.88;18.33;;;;;;;8.35;39.20;100590.88;10318236;28;20042;-73
2023/03/02 11:07:27;;;;;;;19.88;17.85;;;;;;;8.41;39.64;100591.69;10365144;28;20396;-72
2023/03/02 11:12:30;;;;;;;19.77;17.70;;;;;;;8.44;39.47;100578.56;10373324;28;20050;-74
2023/03/02 11:17:37;;;;;;;25.30;19.52;;;;;;;9.12;38.03;100571.38;10374572;28;20038;-72
2023/03/02 11:22:59;;;;;;;19.02;15.82;;;;;;;8.70;37.41;100562.47;10375922;28;20053;-72
2023/03/02 11:28:16;;;;;;;19.23;15.85;;;;;;;9.82;33.57;100550.81;10373333;28;20514;-72
2023/03/02 11:33:33;;;;;;;16.17;14.07;;;;;;;9.54;31.93;100548.72;10380235;28;20050;-73
2023/03/02 11:38:52;;;;;;;15.73;14.10;;;;;;;10.05;37.08;100545.09;10382044;28;20476;-72
2023/03/02 11:43:57;;;;;;;16.60;14.23;;;;;;;10.29;34.05;100536.69;10382600;28;20053;-72
2023/03/02 11:49:04;;;;;;;15.43;13.63;;;;;;;9.88;33.11;100532.31;10383401;28;20376;-72
2023/03/02 11:54:43;;;;;;;16.40;13.43;;;;;;;11.12;32.17;100526.78;10381050;28;20073;-72
2023/03/02 11:59:45;;;;;;;14.07;12.77;;;;;;;10.54;33.76;100513.34;10295781;28;20058;-71
2023/03/02 12:04:47;;;;;;;15.93;12.75;;;;;;;10.23;30.15;100512.31;10279633;28;20517;-72
2023/03/02 12:10:06;;;;;;;14.32;12.15;;;;;;;10.13;30.35;100511.63;10298679;28;20106;-73
2023/03/02 12:15:32;;;;;;;13.73;12.15;;;;;;;10.43;28.08;100499.56;10279732;28;20508;-73
2023/03/02 12:20:36;;;;;;;13.60;11.43;;;;;;;10.14;28.54;100501.97;10294730;28;20514;-73
2023/03/02 12:25:49;;;;;;;12.75;11.55;;;;;;;9.45;30.23;100495.56;10295288;28;20464;-74
2023/03/02 12:31:09;;;;;;;11.65;10.43;;;;;;;9.32;30.44;100493.19;10297475;28;20070;-73
2023/03/02 12:36:16;;;;;;;12.32;10.18;;;;;;;8.77;33.55;100485.47;10375292;28;20050;-73
2023/03/02 12:41:40;;;;;;;11.95;10.70;;;;;;;8.55;31.10;100475.34;10376984;28;20050;-74
2023/03/02 12:46:47;;;;;;;9.98;9.02;;;;;;;8.22;29.13;100474.06;10379495;28;20034;-74
2023/03/02 12:51:51;;;;;;;10.80;9.70;;;;;;;8.04;30.89;100459.50;10382237;28;20088;-73
2023/03/02 12:57:07;;;;;;;11.95;10.73;;;;;;;7.75;31.14;100451.22;10378307;28;20044;-73
2023/03/02 13:02:15;;;;;;;11.98;10.63;;;;;;;7.75;33.00;100449.47;10379006;28;20037;-73
2023/03/02 13:07:20;;;;;;;14.07;12.65;;;;;;;7.68;32.07;100444.31;10379171;28;20121;-73
2023/03/02 13:12:25;;;;;;;14.93;11.65;;;;;;;7.42;31.73;100442.03;10380615;28;20037;-74
2023/03/02 13:17:31;;;;;;;15.18;13.10;;;;;;;7.51;33.29;100440.16;10376759;28;20263;-74
2023/03/02 13:22:33;;;;;;;15.20;13.80;;;;;;;7.55;33.67;100433.16;10376366;28;20499;-73
2023/03/02 13:27:35;;;;;;;16.02;14.48;;;;;;;7.43;35.78;100428.91;10377313;28;20519;-74
2023/03/02 13:32:41;;;;;;;15.80;14.18;;;;;;;7.48;35.99;100416.69;10376832;28;20049;-73
2023/03/02 13:37:43;;;;;;;16.25;14.50;;;;;;;7.38;36.23;100417.66;10414009;28;20034;-73
2023/03/02 13:42:44;;;;;;;17.67;15.15;;;;;;;7.51;36.15;100414.00;10417837;28;20041;-73
2023/03/02 13:47:46;;;;;;;19.27;17.42;;;;;;;7.49;36.61;100413.16;10417108;28;20069;-74
2023/03/02 13:52:49;;;;;;;18.08;16.48;;;;;;;7.33;37.19;100409.00;10416564;28;20064;-73
2023/03/02 13:57:53;;;;;;;17.13;15.40;;;;;;;7.37;36.96;100412.47;10419009;28;20124;-73
2023/03/02 14:02:54;;;;;;;20.95;14.43;;;;;;;7.19;36.41;100405.72;10414953;28;20065;-73
2023/03/02 14:07:56;;;;;;;17.00;15.35;;;;;;;7.44;35.41;100407.13;10416481;28;20507;-73
2023/03/02 14:13:04;;;;;;;17.20;15.38;;;;;;;7.38;34.95;100401.09;10417331;28;20045;-73
2023/03/02 14:18:29;;;;;;;17.65;15.90;;;;;;;7.37;35.87;100396.78;10418441;28;20037;-74
2023/03/02 14:23:30;;;;;;;17.25;15.75;;;;;;;7.28;36.53;100389.91;10411469;28;20053;-73
2023/03/02 14:28:34;;;;;;;18.38;16.67;;;;;;;7.12;36.53;100383.13;10415646;28;20079;-74
2023/03/02 14:33:36;;;;;;;17.20;14.80;;;;;;;7.19;35.96;100388.25;10416587;28;20080;-74
2023/03/02 14:38:38;;;;;;;24.30;16.65;;;;;;;7.45;35.75;100379.22;10417165;28;20376;-74
2023/03/02 14:43:40;;;;;;;17.10;15.35;;;;;;;7.40;35.59;100376.69;10418654;28;20049;-74
2023/03/02 14:48:42;;;;;;;16.60;14.90;;;;;;;7.31;35.84;100372.44;10416252;28;20453;-73
2023/03/02 14:53:43;;;;;;;17.55;15.70;;;;;;;7.20;36.86;100362.97;10415868;28;20042;-73
2023/03/02 14:58:45;;;;;;;21.15;16.55;;;;;;;7.36;35.67;100359.28;10498699;22;20051;-74
2023/03/02 15:03:47;;;;;;;17.50;15.90;;;;;;;7.12;36.46;100354.38;10498422;28;20041;-74
2023/03/02 15:08:48;;;;;;;16.92;15.38;;;;;;;7.27;36.21;100349.81;10505942;28;20040;-74
2023/03/02 15:13:50;;;;;;;17.15;15.45;;;;;;;7.24;36.83;100347.25;10507024;28;20046;-74
2023/03/02 15:18:52;;;;;;;13.48;12.20;;;;;;;7.16;36.07;100343.84;10506194;28;20062;-74
2023/03/02 15:23:54;;;;;;;13.00;11.45;;;;;;;7.13;35.97;100341.28;10506775;28;20506;-74
2023/03/02 15:28:56;;;;;;;13.02;11.65;;;;;;;6.93;36.86;100346.75;10506839;28;20042;-74
2023/03/02 15:33:58;;;;;;;13.13;11.52;;;;;;;7.11;37.48;100347.41;10504424;28;20056;-73
2023/03/02 15:38:59;;;;;;;12.93;11.55;;;;;;;6.93;37.81;100348.50;10505764;28;20052;-74
2023/03/02 15:44:01;;;;;;;13.50;11.98;;;;;;;6.97;37.62;100345.84;10504160;28;20059;-73
2023/03/02 15:49:03;;;;;;;12.13;10.55;;;;;;;7.06;37.58;100340.50;10505957;28;20043;-73
2023/03/02 15:54:05;;;;;;;15.10;12.63;;;;;;;6.87;38.88;100328.56;10505813;28;20048;-73
2023/03/02 15:59:07;;;;;;;13.52;12.20;;;;;;;6.91;38.45;100327.63;10504791;28;20037;-73
2023/03/02 16:04:09;;;;;;;12.57;11.38;;;;;;;6.91;39.11;100335.47;10505168;28;20490;-73
2023/03/02 16:09:11;;;;;;;16.20;12.45;;;;;;;6.90;39.29;100338.09;10505029;28;20050;-74
2023/03/02 16:14:14;;;;;;;12.23;11.02;;;;;;;6.57;40.04;100340.19;10504676;28;20456;-73
2023/03/02 16:19:17;;;;;;;13.75;12.45;;;;;;;6.32;40.52;100343.03;10504329;28;20043;-73
2023/03/02 16:24:20;;;;;;;14.45;12.95;;;;;;;6.18;42.54;100337.09;10504034;28;20118;-73
2023/03/02 16:29:23;;;;;;;15.55;14.10;;;;;;;6.26;43.50;100347.47;10503758;28;20505;-73
2023/03/02 16:34:24;;;;;;;16.95;14.85;;;;;;;5.96;44.93;100361.63;10504628;28;20052;-73
2023/03/02 16:39:26;;;;;;;17.15;14.68;;;;;;;5.93;45.73;100359.94;10504108;28;20055;-74
2023/03/02 16:44:28;;;;;;;17.90;15.55;;;;;;;5.91;46.90;100351.22;10503364;28;20539;-73
2023/03/02 16:49:29;;;;;;;18.35;15.38;;;;;;;5.61;49.13;100356.63;10503600;28;20036;-73
2023/03/02 16:54:31;;;;;;;20.95;16.17;;;;;;;5.03;50.77;100361.28;10501628;28;20055;-73
2023/03/02 16:59:33;;;;;;;17.88;15.55;;;;;;;4.70;52.55;100359.66;10502267;28;20067;-74
2023/03/02 17:04:35;;;;;;;19.15;14.65;;;;;;;4.65;54.70;100365.72;10501241;28;20060;-75
2023/03/02 17:09:40;;;;;;;20.42;14.75;;;;;;;4.10;55.54;100368.41;10500820;28;20139;-75
2023/03/02 17:14:42;;;;;;;28.70;17.98;;;;;;;3.99;57.56;100371.91;10502569;28;20088;-73
2023/03/02 17:19:44;;;;;;;22.98;18.63;;;;;;;3.58;58.33;100369.22;10502684;28;20036;-75
2023/03/02 17:24:45;;;;;;;31.42;20.33;;;;;;;3.51;59.38;100368.38;10500150;28;20052;-74
2023/03/02 17:29:47;;;;;;;33.38;18.95;;;;;;;3.35;60.47;100363.97;10500969;28;20045;-74
2023/03/02 17:34:49;;;;;;;34.83;20.90;;;;;;;3.53;59.60;100369.22;10501713;28;20086;-73
2023/03/02 17:39:51;;;;;;;31.13;20.05;;;;;;;3.31;60.32;100371.75;10500779;28;20043;-75
2023/03/02 17:44:53;;;;;;;27.35;18.15;;;;;;;3.17;60.75;100376.91;10499881;28;20064;-75
2023/03/02 17:49:57;;;;;;;23.83;17.15;;;;;;;3.09;60.79;100376.88;10500887;28;20045;-74
2023/03/02 17:54:58;;;;;;;32.38;18.13;;;;;;;2.58;61.93;100382.69;10499230;28;20053;-74
2023/03/02 18:00:00;;;;;;;28.25;18.85;;;;;;;2.80;63.43;100379.34;10499671;28;20040;-74
2023/03/02 18:05:07;;;;;;;36.95;20.45;;;;;;;2.64;64.41;100387.91;10501155;28;20097;-74
2023/03/02 18:10:09;;;;;;;38.40;20.63;;;;;;;2.45;65.54;100384.34;10500994;28;20045;-74
2023/03/02 18:15:11;;;;;;;33.65;21.27;;;;;;;2.26;66.92;100391.13;10501653;28;20048;-73
2023/03/02 18:20:13;;;;;;;28.42;22.30;;;;;;;1.91;68.15;100391.69;10501024;28;20567;-75
2023/03/02 18:25:15;;;;;;;43.90;23.42;;;;;;;1.87;69.63;100405.47;10500045;28;20044;-74
2023/03/02 18:30:20;;;;;;;42.40;22.98;;;;;;;2.18;69.17;100404.03;10486507;28;20045;-74
2023/03/02 18:35:22;;;;;;;43.15;24.35;;;;;;;2.24;67.71;100404.06;10472595;28;20044;-75
2023/03/02 18:40:24;;;;;;;39.88;23.38;;;;;;;2.13;68.48;100408.31;10490804;28;20045;-74
2023/03/02 18:45:29;;;;;;;46.13;24.13;;;;;;;2.02;69.65;100421.16;10500426;28;20071;-75
2023/03/02 18:50:31;;;;;;;44.85;25.10;;;;;;;1.59;70.70;100429.38;10517231;28;20047;-74
2023/03/02 18:55:35;;;;;;;70.03;35.53;;;;;;;2.06;70.99;100428.97;10499739;28;20049;-73
2023/03/02 19:00:37;;;;;;;58.28;30.05;;;;;;;1.76;70.44;100430.41;10500528;28;20045;-74
2023/03/02 19:05:41;;;;;;;35.00;23.00;;;;;;;1.92;76.29;100431.44;10498797;28;20051;-73
2023/03/02 19:10:42;;;;;;;40.95;23.73;;;;;;;2.02;76.65;100433.25;10500575;28;20068;-74
2023/03/02 19:15:45;;;;;;;36.95;23.23;;;;;;;2.06;77.82;100440.22;10499678;28;20086;-75
2023/03/02 19:20:49;;;;;;;39.72;24.52;;;;;;;2.10;78.03;100444.56;10499240;28;20041;-74
2023/03/02 19:25:54;;;;;;;29.95;22.75;;;;;;;2.03;80.04;100450.56;10499641;28;20473;-75
2023/03/02 19:30:56;;;;;;;28.25;22.15;;;;;;;1.95;82.04;100458.28;10499328;28;20050;-74
2023/03/02 19:35:58;;;;;;;31.10;23.13;;;;;;;2.23;84.13;100454.22;10515545;28;20052;-75
2023/03/02 19:41:00;;;;;;;38.63;25.10;;;;;;;2.26;81.50;100456.84;10457464;28;20037;-74
2023/03/02 19:46:03;;;;;;;73.53;35.10;;;;;;;2.03;82.98;100463.50;10458416;28;20128;-74
2023/03/02 19:51:07;;;;;;;43.00;27.50;;;;;;;1.80;83.90;100455.50;10458481;28;20052;-74
2023/03/02 19:56:13;;;;;;;30.17;21.40;;;;;;;1.70;84.34;100453.69;10463963;28;20529;-74
2023/03/02 20:01:23;;;;;;;25.98;21.95;;;;;;;1.46;86.91;100465.53;10466561;28;20051;-75
2023/03/02 20:06:29;;;;;;;38.90;24.55;;;;;;;1.80;89.22;100460.69;10464074;28;20059;-75
2023/03/02 20:11:31;;;;;;;35.45;23.73;;;;;;;1.74;88.23;100466.69;10463783;28;20068;-75
2023/03/02 20:16:34;;;;;;;39.95;25.90;;;;;;;1.33;89.02;100467.91;10480954;28;20075;-74
2023/03/02 20:21:37;;;;;;;86.60;42.35;;;;;;;1.19;91.03;100463.41;10464045;28;20045;-75
2023/03/02 20:26:40;;;;;;;41.53;26.85;;;;;;;1.13;91.18;100472.84;10479510;28;20461;-75
2023/03/02 20:31:43;;;;;;;45.08;29.05;;;;;;;0.97;93.29;100475.25;10463364;28;20417;-74
2023/03/02 20:36:45;;;;;;;64.50;34.20;;;;;;;1.13;93.22;100478.88;10469284;28;20063;-75
2023/03/02 20:41:50;;;;;;;63.95;32.92;;;;;;;1.32;94.79;100480.00;10504642;28;20524;-75
2023/03/02 20:46:56;;;;;;;46.30;29.15;;;;;;;1.03;96.20;100478.75;10503961;28;20083;-74
2023/03/02 20:51:59;;;;;;;51.95;32.03;;;;;;;1.07;93.98;100477.97;10500882;28;20045;-74
2023/03/02 20:57:00;;;;;;;41.97;27.70;;;;;;;0.60;95.97;100478.13;10501324;28;20068;-75
2023/03/02 21:02:03;;;;;;;46.72;28.33;;;;;;;0.55;93.60;100472.88;10500874;28;20049;-75
2023/03/02 21:07:05;;;;;;;48.28;29.00;;;;;;;0.29;97.65;100471.56;10501982;28;20048;-75
2023/03/02 21:12:10;;;;;;;49.33;29.67;;;;;;;0.52;98.51;100466.78;10503402;28;20115;-73
2023/03/02 21:17:12;;;;;;;55.65;31.73;;;;;;;0.41;97.55;100459.72;10503293;28;20043;-73
2023/03/02 21:22:14;;;;;;;43.33;28.92;;;;;;;0.01;98.74;100457.31;10502798;28;20041;-73
2023/03/02 21:27:15;;;;;;;52.95;30.15;;;;;;;0.13;100.00;100460.09;10502830;28;20047;-74
2023/03/02 21:32:17;;;;;;;59.97;33.25;;;;;;;0.34;98.30;100462.16;10502624;28;20044;-74
2023/03/02 21:37:19;;;;;;;79.35;36.78;;;;;;;0.15;100.00;100455.84;10501829;28;20486;-74
2023/03/02 21:42:21;;;;;;;60.05;33.00;;;;;;;0.31;100.00;100464.69;10501463;28;20502;-73
2023/03/02 21:47:23;;;;;;;56.95;31.88;;;;;;;-0.16;100.00;100465.63;10501732;28;20486;-73
2023/03/02 21:52:26;;;;;;;63.40;34.35;;;;;;;-0.37;100.00;100455.75;10500894;28;20041;-73
2023/03/02 21:57:27;;;;;;;67.40;34.15;;;;;;;-0.43;100.00;100462.53;10500222;28;20123;-74
2023/03/02 22:02:30;;;;;;;61.53;30.60;;;;;;;-0.62;100.00;100456.09;10500514;28;20070;-75
2023/03/02 22:07:31;;;;;;;61.20;34.35;;;;;;;-0.52;100.00;100464.09;10500681;28;20040;-74
2023/03/02 22:12:33;;;;;;;77.82;37.33;;;;;;;-0.07;100.00;100462.34;10482235;28;20087;-73
2023/03/02 22:17:35;;;;;;;66.90;35.53;;;;;;;-0.18;100.00;100459.53;10500210;28;20043;-73
2023/03/02 22:22:36;;;;;;;73.18;37.53;;;;;;;-0.59;100.00;100463.91;10499645;28;20048;-73
2023/03/02 22:27:38;;;;;;;74.50;37.38;;;;;;;-0.64;100.00;100478.44;10499654;28;20059;-74
2023/03/02 22:32:40;;;;;;;73.25;38.20;;;;;;;-0.49;100.00;100473.59;10498209;28;20055;-73
2023/03/02 22:37:41;;;;;;;78.75;39.13;;;;;;;-0.46;100.00;100473.66;10498599;28;20040;-74
2023/03/02 22:42:43;;;;;;;72.85;37.70;;;;;;;-0.59;100.00;100472.53;10499246;28;20159;-74
2023/03/02 22:47:50;;;;;;;81.93;40.10;;;;;;;-0.85;100.00;100464.25;10497412;28;20055;-74
2023/03/02 22:52:53;;;;;;;84.43;40.15;;;;;;;-0.96;100.00;100463.16;10498795;28;20047;-74
2023/03/02 22:57:55;;;;;;;75.47;38.25;;;;;;;-0.57;100.00;100464.84;10499310;28;20444;-73